sensor_id;sensor_type;location;lat;lon;timestamp;temperature;humidity
67555;HTU21D;54385;53.516;49.456;2022-11-20T00:01:27;0.81;81.46
67555;HTU21D;54385;53.516;49.456;2022-11-20T00:03:56;0.82;80.94
67555;HTU21D;54385;53.516;49.456;2022-11-20T00:06:24;0.84;81.43
67555;HTU21D;54385;53.516;49.456;2022-11-20T00:08:54;0.84;80.40
67555;HTU21D;54385;53.516;49.456;2022-11-20T00:11:22;0.81;80.85
67555;HTU21D;54385;53.516;49.456;2022-11-20T00:13:52;0.79;81.20
67555;HTU21D;54385;53.516;49.456;2022-11-20T00:16:21;0.74;81.41
67555;HTU21D;54385;53.516;49.456;2022-11-20T00:18:48;0.80;81.05
67555;HTU21D;54385;53.516;49.456;2022-11-20T00:21:17;0.77;80.88
67555;HTU21D;54385;53.516;49.456;2022-11-20T00:23:45;0.83;81.07
67555;HTU21D;54385;53.516;49.456;2022-11-20T00:26:13;0.89;80.35
67555;HTU21D;54385;53.516;49.456;2022-11-20T00:28:41;0.86;80.51
67555;HTU21D;54385;53.516;49.456;2022-11-20T00:31:13;0.84;80.69
67555;HTU21D;54385;53.516;49.456;2022-11-20T00:33:41;0.67;80.25
67555;HTU21D;54385;53.516;49.456;2022-11-20T00:36:14;0.59;80.75
67555;HTU21D;54385;53.516;49.456;2022-11-20T00:38:41;0.64;80.85
67555;HTU21D;54385;53.516;49.456;2022-11-20T00:41:09;0.65;80.81
67555;HTU21D;54385;53.516;49.456;2022-11-20T00:43:36;0.65;81.04
67555;HTU21D;54385;53.516;49.456;2022-11-20T00:46:09;0.66;80.60
67555;HTU21D;54385;53.516;49.456;2022-11-20T00:48:35;0.66;80.85
67555;HTU21D;54385;53.516;49.456;2022-11-20T00:51:02;0.67;79.97
67555;HTU21D;54385;53.516;49.456;2022-11-20T00:53:30;0.61;80.14
67555;HTU21D;54385;53.516;49.456;2022-11-20T00:56:01;0.57;79.90
67555;HTU21D;54385;53.516;49.456;2022-11-20T00:58:30;0.52;80.24
67555;HTU21D;54385;53.516;49.456;2022-11-20T01:03:41;0.60;80.24
67555;HTU21D;54385;53.516;49.456;2022-11-20T01:06:12;0.58;80.60
67555;HTU21D;54385;53.516;49.456;2022-11-20T01:08:39;0.61;80.94
67555;HTU21D;54385;53.516;49.456;2022-11-20T01:11:18;0.68;80.18
67555;HTU21D;54385;53.516;49.456;2022-11-20T01:13:46;0.64;80.02
67555;HTU21D;54385;53.516;49.456;2022-11-20T01:16:28;0.66;80.36
67555;HTU21D;54385;53.516;49.456;2022-11-20T01:18:59;0.72;80.56
67555;HTU21D;54385;53.516;49.456;2022-11-20T01:21:28;0.68;80.32
67555;HTU21D;54385;53.516;49.456;2022-11-20T01:23:56;0.72;80.98
67555;HTU21D;54385;53.516;49.456;2022-11-20T01:26:25;0.80;80.65
67555;HTU21D;54385;53.516;49.456;2022-11-20T01:28:54;0.82;80.02
67555;HTU21D;54385;53.516;49.456;2022-11-20T01:31:27;0.77;80.03
67555;HTU21D;54385;53.516;49.456;2022-11-20T01:33:56;0.79;80.59
67555;HTU21D;54385;53.516;49.456;2022-11-20T01:36:24;0.77;80.66
67555;HTU21D;54385;53.516;49.456;2022-11-20T01:38:56;0.82;81.05
67555;HTU21D;54385;53.516;49.456;2022-11-20T01:41:23;0.90;80.05
67555;HTU21D;54385;53.516;49.456;2022-11-20T01:44:11;0.97;80.14
67555;HTU21D;54385;53.516;49.456;2022-11-20T01:46:59;0.96;79.86
67555;HTU21D;54385;53.516;49.456;2022-11-20T01:49:39;0.93;80.38
67555;HTU21D;54385;53.516;49.456;2022-11-20T01:54:56;0.94;80.23
67555;HTU21D;54385;53.516;49.456;2022-11-20T01:57:27;0.92;79.72
67555;HTU21D;54385;53.516;49.456;2022-11-20T02:00:06;0.88;80.20
67555;HTU21D;54385;53.516;49.456;2022-11-20T02:02:34;0.87;80.14
67555;HTU21D;54385;53.516;49.456;2022-11-20T02:05:06;0.93;80.05
67555;HTU21D;54385;53.516;49.456;2022-11-20T02:07:34;0.89;80.69
67555;HTU21D;54385;53.516;49.456;2022-11-20T02:10:01;0.89;81.05
67555;HTU21D;54385;53.516;49.456;2022-11-20T02:12:28;0.90;80.85
67555;HTU21D;54385;53.516;49.456;2022-11-20T02:15:13;0.94;80.57
67555;HTU21D;54385;53.516;49.456;2022-11-20T02:17:39;0.84;80.01
67555;HTU21D;54385;53.516;49.456;2022-11-20T02:20:07;0.82;80.83
67555;HTU21D;54385;53.516;49.456;2022-11-20T02:25:24;0.88;80.33
67555;HTU21D;54385;53.516;49.456;2022-11-20T02:27:53;0.92;80.24
67555;HTU21D;54385;53.516;49.456;2022-11-20T02:30:19;1.03;79.86
67555;HTU21D;54385;53.516;49.456;2022-11-20T02:32:46;1.08;79.90
67555;HTU21D;54385;53.516;49.456;2022-11-20T02:37:49;1.07;79.62
67555;HTU21D;54385;53.516;49.456;2022-11-20T02:40:18;1.13;79.58
67555;HTU21D;54385;53.516;49.456;2022-11-20T02:42:44;1.23;79.16
67555;HTU21D;54385;53.516;49.456;2022-11-20T02:45:11;1.19;79.40
67555;HTU21D;54385;53.516;49.456;2022-11-20T02:47:38;1.18;79.56
67555;HTU21D;54385;53.516;49.456;2022-11-20T02:50:05;1.13;79.64
67555;HTU21D;54385;53.516;49.456;2022-11-20T02:52:32;1.16;79.46
67555;HTU21D;54385;53.516;49.456;2022-11-20T02:54:59;1.12;79.30
67555;HTU21D;54385;53.516;49.456;2022-11-20T02:57:25;1.11;79.85
67555;HTU21D;54385;53.516;49.456;2022-11-20T02:59:52;1.14;79.79
67555;HTU21D;54385;53.516;49.456;2022-11-20T03:02:19;1.20;79.50
67555;HTU21D;54385;53.516;49.456;2022-11-20T03:04:46;1.22;79.74
67555;HTU21D;54385;53.516;49.456;2022-11-20T03:07:13;1.16;79.57
67555;HTU21D;54385;53.516;49.456;2022-11-20T03:09:46;1.09;79.69
67555;HTU21D;54385;53.516;49.456;2022-11-20T03:12:13;1.08;80.13
67555;HTU21D;54385;53.516;49.456;2022-11-20T03:14:39;1.19;80.70
67555;HTU21D;54385;53.516;49.456;2022-11-20T03:17:07;1.26;79.85
67555;HTU21D;54385;53.516;49.456;2022-11-20T03:19:34;1.26;79.41
67555;HTU21D;54385;53.516;49.456;2022-11-20T03:22:04;1.28;79.63
67555;HTU21D;54385;53.516;49.456;2022-11-20T03:24:32;1.25;79.27
67555;HTU21D;54385;53.516;49.456;2022-11-20T03:26:59;1.18;79.75
67555;HTU21D;54385;53.516;49.456;2022-11-20T03:29:25;1.10;80.10
67555;HTU21D;54385;53.516;49.456;2022-11-20T03:31:52;1.16;79.90
67555;HTU21D;54385;53.516;49.456;2022-11-20T03:34:18;1.05;80.25
67555;HTU21D;54385;53.516;49.456;2022-11-20T03:36:45;1.06;81.02
67555;HTU21D;54385;53.516;49.456;2022-11-20T03:39:11;1.04;80.65
67555;HTU21D;54385;53.516;49.456;2022-11-20T03:41:40;1.01;80.80
67555;HTU21D;54385;53.516;49.456;2022-11-20T03:44:08;1.09;80.74
67555;HTU21D;54385;53.516;49.456;2022-11-20T03:46:35;1.13;80.36
67555;HTU21D;54385;53.516;49.456;2022-11-20T03:49:03;1.11;80.74
67555;HTU21D;54385;53.516;49.456;2022-11-20T03:51:35;1.02;80.47
67555;HTU21D;54385;53.516;49.456;2022-11-20T03:54:03;0.89;81.12
67555;HTU21D;54385;53.516;49.456;2022-11-20T03:56:33;0.92;81.19
67555;HTU21D;54385;53.516;49.456;2022-11-20T03:59:02;0.84;81.04
67555;HTU21D;54385;53.516;49.456;2022-11-20T04:01:34;0.81;81.10
67555;HTU21D;54385;53.516;49.456;2022-11-20T04:04:01;0.76;81.17
67555;HTU21D;54385;53.516;49.456;2022-11-20T04:06:35;0.80;80.89
67555;HTU21D;54385;53.516;49.456;2022-11-20T04:09:03;0.88;80.95
67555;HTU21D;54385;53.516;49.456;2022-11-20T04:11:32;0.89;80.90
67555;HTU21D;54385;53.516;49.456;2022-11-20T04:14:01;0.86;81.00
67555;HTU21D;54385;53.516;49.456;2022-11-20T04:16:33;0.90;81.17
67555;HTU21D;54385;53.516;49.456;2022-11-20T04:19:02;0.94;80.89
67555;HTU21D;54385;53.516;49.456;2022-11-20T04:21:29;0.99;80.93
67555;HTU21D;54385;53.516;49.456;2022-11-20T04:23:56;1.05;80.48
67555;HTU21D;54385;53.516;49.456;2022-11-20T04:26:25;1.06;80.56
67555;HTU21D;54385;53.516;49.456;2022-11-20T04:28:52;1.07;80.49
67555;HTU21D;54385;53.516;49.456;2022-11-20T04:31:23;1.11;80.53
67555;HTU21D;54385;53.516;49.456;2022-11-20T04:33:50;1.12;80.09
67555;HTU21D;54385;53.516;49.456;2022-11-20T04:36:24;1.07;79.95
67555;HTU21D;54385;53.516;49.456;2022-11-20T04:38:55;1.09;80.38
67555;HTU21D;54385;53.516;49.456;2022-11-20T04:41:24;1.04;79.98
67555;HTU21D;54385;53.516;49.456;2022-11-20T04:43:53;0.99;80.01
67555;HTU21D;54385;53.516;49.456;2022-11-20T04:46:26;0.94;80.26
67555;HTU21D;54385;53.516;49.456;2022-11-20T04:48:52;0.99;80.43
67555;HTU21D;54385;53.516;49.456;2022-11-20T04:51:19;1.03;80.74
67555;HTU21D;54385;53.516;49.456;2022-11-20T04:53:45;1.08;80.62
67555;HTU21D;54385;53.516;49.456;2022-11-20T04:56:12;1.12;80.66
67555;HTU21D;54385;53.516;49.456;2022-11-20T04:58:39;1.18;79.49
67555;HTU21D;54385;53.516;49.456;2022-11-20T05:03:38;1.22;79.90
67555;HTU21D;54385;53.516;49.456;2022-11-20T05:06:06;1.18;79.89
67555;HTU21D;54385;53.516;49.456;2022-11-20T05:08:33;1.17;79.49
67555;HTU21D;54385;53.516;49.456;2022-11-20T05:11:13;1.22;79.33
67555;HTU21D;54385;53.516;49.456;2022-11-20T05:13:41;1.14;79.57
67555;HTU21D;54385;53.516;49.456;2022-11-20T05:16:09;1.13;79.27
67555;HTU21D;54385;53.516;49.456;2022-11-20T05:18:37;1.09;79.49
67555;HTU21D;54385;53.516;49.456;2022-11-20T05:21:04;1.06;79.65
67555;HTU21D;54385;53.516;49.456;2022-11-20T05:23:32;1.07;79.41
67555;HTU21D;54385;53.516;49.456;2022-11-20T05:25:59;1.07;79.66
67555;HTU21D;54385;53.516;49.456;2022-11-20T05:28:28;1.03;79.65
67555;HTU21D;54385;53.516;49.456;2022-11-20T05:30:55;1.05;80.33
67555;HTU21D;54385;53.516;49.456;2022-11-20T05:33:21;1.11;79.93
67555;HTU21D;54385;53.516;49.456;2022-11-20T05:35:48;1.12;79.77
67555;HTU21D;54385;53.516;49.456;2022-11-20T05:38:15;1.11;79.71
67555;HTU21D;54385;53.516;49.456;2022-11-20T05:40:41;1.23;79.96
67555;HTU21D;54385;53.516;49.456;2022-11-20T05:43:08;1.35;79.66
67555;HTU21D;54385;53.516;49.456;2022-11-20T05:45:34;1.49;79.43
67555;HTU21D;54385;53.516;49.456;2022-11-20T05:48:01;1.63;79.25
67555;HTU21D;54385;53.516;49.456;2022-11-20T05:50:27;1.68;79.06
67555;HTU21D;54385;53.516;49.456;2022-11-20T05:52:54;1.72;78.75
67555;HTU21D;54385;53.516;49.456;2022-11-20T05:55:21;1.70;78.27
67555;HTU21D;54385;53.516;49.456;2022-11-20T05:57:47;1.73;78.77
67555;HTU21D;54385;53.516;49.456;2022-11-20T06:00:14;1.76;78.48
67555;HTU21D;54385;53.516;49.456;2022-11-20T06:02:40;1.87;79.26
67555;HTU21D;54385;53.516;49.456;2022-11-20T06:05:07;1.88;78.03
67555;HTU21D;54385;53.516;49.456;2022-11-20T06:07:34;1.79;78.44
67555;HTU21D;54385;53.516;49.456;2022-11-20T06:10:00;1.83;78.91
67555;HTU21D;54385;53.516;49.456;2022-11-20T06:12:27;1.92;79.18
67555;HTU21D;54385;53.516;49.456;2022-11-20T06:14:53;1.96;78.74
67555;HTU21D;54385;53.516;49.456;2022-11-20T06:17:20;1.92;78.81
67555;HTU21D;54385;53.516;49.456;2022-11-20T06:19:46;1.93;78.37
67555;HTU21D;54385;53.516;49.456;2022-11-20T06:22:13;2.05;78.73
67555;HTU21D;54385;53.516;49.456;2022-11-20T06:24:39;2.09;78.41
67555;HTU21D;54385;53.516;49.456;2022-11-20T06:27:06;2.15;78.27
67555;HTU21D;54385;53.516;49.456;2022-11-20T06:29:32;2.23;78.14
67555;HTU21D;54385;53.516;49.456;2022-11-20T06:31:59;2.28;77.98
67555;HTU21D;54385;53.516;49.456;2022-11-20T06:34:25;2.29;77.85
67555;HTU21D;54385;53.516;49.456;2022-11-20T06:36:52;2.32;77.94
67555;HTU21D;54385;53.516;49.456;2022-11-20T06:39:18;2.28;78.21
67555;HTU21D;54385;53.516;49.456;2022-11-20T06:41:45;2.29;78.26
67555;HTU21D;54385;53.516;49.456;2022-11-20T06:44:11;2.26;78.17
67555;HTU21D;54385;53.516;49.456;2022-11-20T06:46:38;2.31;78.19
67555;HTU21D;54385;53.516;49.456;2022-11-20T06:49:05;2.25;78.03
67555;HTU21D;54385;53.516;49.456;2022-11-20T06:51:31;2.28;78.64
67555;HTU21D;54385;53.516;49.456;2022-11-20T06:53:58;2.37;78.02
67555;HTU21D;54385;53.516;49.456;2022-11-20T06:56:24;2.40;78.33
67555;HTU21D;54385;53.516;49.456;2022-11-20T06:58:51;2.44;78.52
67555;HTU21D;54385;53.516;49.456;2022-11-20T07:01:17;2.43;78.43
67555;HTU21D;54385;53.516;49.456;2022-11-20T07:03:44;2.49;78.61
67555;HTU21D;54385;53.516;49.456;2022-11-20T07:06:10;2.51;78.01
67555;HTU21D;54385;53.516;49.456;2022-11-20T07:08:37;2.39;77.93
67555;HTU21D;54385;53.516;49.456;2022-11-20T07:11:06;2.37;77.98
67555;HTU21D;54385;53.516;49.456;2022-11-20T07:13:34;2.31;77.80
67555;HTU21D;54385;53.516;49.456;2022-11-20T07:16:05;2.37;77.81
67555;HTU21D;54385;53.516;49.456;2022-11-20T07:18:33;2.42;77.56
67555;HTU21D;54385;53.516;49.456;2022-11-20T07:21:04;2.39;77.51
67555;HTU21D;54385;53.516;49.456;2022-11-20T07:23:31;2.38;77.76
67555;HTU21D;54385;53.516;49.456;2022-11-20T07:26:02;2.40;78.47
67555;HTU21D;54385;53.516;49.456;2022-11-20T07:28:28;2.43;78.51
67555;HTU21D;54385;53.516;49.456;2022-11-20T07:30:54;2.40;77.95
67555;HTU21D;54385;53.516;49.456;2022-11-20T07:33:21;2.31;78.53
67555;HTU21D;54385;53.516;49.456;2022-11-20T07:35:47;2.28;78.10
67555;HTU21D;54385;53.516;49.456;2022-11-20T07:38:14;2.29;78.85
67555;HTU21D;54385;53.516;49.456;2022-11-20T07:40:40;2.36;78.54
67555;HTU21D;54385;53.516;49.456;2022-11-20T07:43:07;2.32;79.34
67555;HTU21D;54385;53.516;49.456;2022-11-20T07:45:33;2.35;78.63
67555;HTU21D;54385;53.516;49.456;2022-11-20T07:48:00;2.29;79.02
67555;HTU21D;54385;53.516;49.456;2022-11-20T07:50:27;2.27;78.97
67555;HTU21D;54385;53.516;49.456;2022-11-20T07:53:06;2.26;79.32
67555;HTU21D;54385;53.516;49.456;2022-11-20T07:55:32;2.25;79.58
67555;HTU21D;54385;53.516;49.456;2022-11-20T07:57:59;2.28;79.01
67555;HTU21D;54385;53.516;49.456;2022-11-20T08:00:26;2.25;79.40
67555;HTU21D;54385;53.516;49.456;2022-11-20T08:02:53;2.21;79.69
67555;HTU21D;54385;53.516;49.456;2022-11-20T08:05:19;2.34;79.70
67555;HTU21D;54385;53.516;49.456;2022-11-20T08:07:46;2.35;79.37
67555;HTU21D;54385;53.516;49.456;2022-11-20T08:10:15;2.35;80.04
67555;HTU21D;54385;53.516;49.456;2022-11-20T08:12:48;2.50;79.78
67555;HTU21D;54385;53.516;49.456;2022-11-20T08:15:34;2.60;79.21
67555;HTU21D;54385;53.516;49.456;2022-11-20T08:18:19;2.67;78.30
67555;HTU21D;54385;53.516;49.456;2022-11-20T08:20:45;2.70;77.99
67555;HTU21D;54385;53.516;49.456;2022-11-20T08:23:12;2.72;78.31
67555;HTU21D;54385;53.516;49.456;2022-11-20T08:25:38;2.72;78.50
67555;HTU21D;54385;53.516;49.456;2022-11-20T08:28:08;2.97;78.42
67555;HTU21D;54385;53.516;49.456;2022-11-20T08:30:36;3.12;77.48
67555;HTU21D;54385;53.516;49.456;2022-11-20T08:33:05;3.25;76.65
67555;HTU21D;54385;53.516;49.456;2022-11-20T08:35:34;3.31;76.73
67555;HTU21D;54385;53.516;49.456;2022-11-20T08:38:02;3.38;76.38
67555;HTU21D;54385;53.516;49.456;2022-11-20T08:40:29;3.36;76.41
67555;HTU21D;54385;53.516;49.456;2022-11-20T08:42:56;3.28;76.85
67555;HTU21D;54385;53.516;49.456;2022-11-20T08:45:22;3.25;76.78
67555;HTU21D;54385;53.516;49.456;2022-11-20T08:47:49;3.21;76.73
67555;HTU21D;54385;53.516;49.456;2022-11-20T08:50:16;3.34;77.19
67555;HTU21D;54385;53.516;49.456;2022-11-20T08:52:43;3.39;76.72
67555;HTU21D;54385;53.516;49.456;2022-11-20T08:55:10;3.39;76.77
67555;HTU21D;54385;53.516;49.456;2022-11-20T08:57:37;3.41;76.38
67555;HTU21D;54385;53.516;49.456;2022-11-20T09:00:06;3.26;76.28
67555;HTU21D;54385;53.516;49.456;2022-11-20T09:02:33;3.14;77.49
67555;HTU21D;54385;53.516;49.456;2022-11-20T09:05:00;3.13;77.37
67555;HTU21D;54385;53.516;49.456;2022-11-20T09:07:28;3.19;76.83
67555;HTU21D;54385;53.516;49.456;2022-11-20T09:09:55;3.23;77.40
67555;HTU21D;54385;53.516;49.456;2022-11-20T09:12:22;3.25;76.79
67555;HTU21D;54385;53.516;49.456;2022-11-20T09:14:48;3.10;77.65
67555;HTU21D;54385;53.516;49.456;2022-11-20T09:17:14;3.16;78.02
67555;HTU21D;54385;53.516;49.456;2022-11-20T09:19:41;3.19;77.56
67555;HTU21D;54385;53.516;49.456;2022-11-20T09:22:07;3.25;77.79
67555;HTU21D;54385;53.516;49.456;2022-11-20T09:24:34;3.23;77.25
67555;HTU21D;54385;53.516;49.456;2022-11-20T09:27:04;3.26;77.60
67555;HTU21D;54385;53.516;49.456;2022-11-20T09:29:31;3.27;77.49
67555;HTU21D;54385;53.516;49.456;2022-11-20T09:31:58;3.31;77.24
67555;HTU21D;54385;53.516;49.456;2022-11-20T09:34:24;3.27;77.39
67555;HTU21D;54385;53.516;49.456;2022-11-20T09:36:51;3.20;77.32
67555;HTU21D;54385;53.516;49.456;2022-11-20T09:39:17;3.12;77.77
67555;HTU21D;54385;53.516;49.456;2022-11-20T09:45:10;3.26;76.76
67555;HTU21D;54385;53.516;49.456;2022-11-20T09:50:36;3.24;77.06
67555;HTU21D;54385;53.516;49.456;2022-11-20T09:53:17;3.34;77.27
67555;HTU21D;54385;53.516;49.456;2022-11-20T09:55:46;3.24;77.60
67555;HTU21D;54385;53.516;49.456;2022-11-20T09:58:38;3.33;77.61
67555;HTU21D;54385;53.516;49.456;2022-11-20T10:01:16;3.38;77.77
67555;HTU21D;54385;53.516;49.456;2022-11-20T10:03:56;3.35;77.44
67555;HTU21D;54385;53.516;49.456;2022-11-20T10:17:50;3.32;77.08
67555;HTU21D;54385;53.516;49.456;2022-11-20T10:26:17;3.11;78.20
67555;HTU21D;54385;53.516;49.456;2022-11-20T10:33:57;3.14;77.23
67555;HTU21D;54385;53.516;49.456;2022-11-20T10:36:26;3.27;76.97
67555;HTU21D;54385;53.516;49.456;2022-11-20T10:39:06;3.32;76.90
67555;HTU21D;54385;53.516;49.456;2022-11-20T10:41:41;3.48;76.72
67555;HTU21D;54385;53.516;49.456;2022-11-20T10:44:20;3.54;75.79
67555;HTU21D;54385;53.516;49.456;2022-11-20T10:47:12;3.58;76.01
67555;HTU21D;54385;53.516;49.456;2022-11-20T10:49:40;3.59;75.95
67555;HTU21D;54385;53.516;49.456;2022-11-20T10:54:46;3.59;76.47
67555;HTU21D;54385;53.516;49.456;2022-11-20T11:00:16;3.80;75.86
67555;HTU21D;54385;53.516;49.456;2022-11-20T11:02:55;3.70;75.95
67555;HTU21D;54385;53.516;49.456;2022-11-20T11:05:40;3.60;75.60
67555;HTU21D;54385;53.516;49.456;2022-11-20T11:08:17;3.65;76.22
67555;HTU21D;54385;53.516;49.456;2022-11-20T11:13:24;3.29;76.31
67555;HTU21D;54385;53.516;49.456;2022-11-20T11:15:51;3.28;76.52
67555;HTU21D;54385;53.516;49.456;2022-11-20T11:18:32;3.29;76.90
67555;HTU21D;54385;53.516;49.456;2022-11-20T11:21:01;3.24;76.32
67555;HTU21D;54385;53.516;49.456;2022-11-20T11:23:34;3.28;76.86
67555;HTU21D;54385;53.516;49.456;2022-11-20T11:26:04;3.20;76.55
67555;HTU21D;54385;53.516;49.456;2022-11-20T11:28:32;3.13;76.97
67555;HTU21D;54385;53.516;49.456;2022-11-20T11:30:59;3.04;77.29
67555;HTU21D;54385;53.516;49.456;2022-11-20T11:33:27;3.02;77.15
67555;HTU21D;54385;53.516;49.456;2022-11-20T11:35:57;2.93;77.28
67555;HTU21D;54385;53.516;49.456;2022-11-20T11:38:37;2.91;77.98
67555;HTU21D;54385;53.516;49.456;2022-11-20T11:41:05;2.90;77.92
67555;HTU21D;54385;53.516;49.456;2022-11-20T11:43:36;2.90;77.90
67555;HTU21D;54385;53.516;49.456;2022-11-20T11:51:33;2.70;79.12
67555;HTU21D;54385;53.516;49.456;2022-11-20T11:54:04;2.71;79.24
67555;HTU21D;54385;53.516;49.456;2022-11-20T11:56:33;2.75;79.37
67555;HTU21D;54385;53.516;49.456;2022-11-20T11:59:05;2.74;78.61
67555;HTU21D;54385;53.516;49.456;2022-11-20T12:01:46;2.75;79.30
67555;HTU21D;54385;53.516;49.456;2022-11-20T12:04:27;2.71;78.99
67555;HTU21D;54385;53.516;49.456;2022-11-20T12:07:12;2.78;78.72
67555;HTU21D;54385;53.516;49.456;2022-11-20T12:09:43;2.70;78.03
67555;HTU21D;54385;53.516;49.456;2022-11-20T12:12:43;2.71;78.33
67555;HTU21D;54385;53.516;49.456;2022-11-20T12:15:11;2.62;77.92
67555;HTU21D;54385;53.516;49.456;2022-11-20T12:17:39;2.58;78.37
67555;HTU21D;54385;53.516;49.456;2022-11-20T12:20:20;2.55;78.82
67555;HTU21D;54385;53.516;49.456;2022-11-20T12:22:52;2.51;78.73
67555;HTU21D;54385;53.516;49.456;2022-11-20T12:25:47;2.55;79.21
67555;HTU21D;54385;53.516;49.456;2022-11-20T12:28:23;2.59;78.75
67555;HTU21D;54385;53.516;49.456;2022-11-20T12:36:13;2.42;78.26
67555;HTU21D;54385;53.516;49.456;2022-11-20T12:39:02;2.19;78.74
67555;HTU21D;54385;53.516;49.456;2022-11-20T12:47:49;2.38;79.21
67555;HTU21D;54385;53.516;49.456;2022-11-20T13:07:28;2.26;79.97
67555;HTU21D;54385;53.516;49.456;2022-11-20T13:09:55;2.29;80.07
67555;HTU21D;54385;53.516;49.456;2022-11-20T13:13:04;2.37;79.67
67555;HTU21D;54385;53.516;49.456;2022-11-20T13:15:56;2.32;78.55
67555;HTU21D;54385;53.516;49.456;2022-11-20T13:18:24;2.23;79.00
67555;HTU21D;54385;53.516;49.456;2022-11-20T13:20:51;2.21;79.42
67555;HTU21D;54385;53.516;49.456;2022-11-20T13:23:27;2.17;80.02
67555;HTU21D;54385;53.516;49.456;2022-11-20T13:26:19;2.25;80.53
67555;HTU21D;54385;53.516;49.456;2022-11-20T13:28:47;2.27;80.45
67555;HTU21D;54385;53.516;49.456;2022-11-20T13:31:44;2.31;79.94
67555;HTU21D;54385;53.516;49.456;2022-11-20T13:34:14;2.29;79.88
67555;HTU21D;54385;53.516;49.456;2022-11-20T13:36:51;2.27;79.72
67555;HTU21D;54385;53.516;49.456;2022-11-20T13:39:38;2.26;80.02
67555;HTU21D;54385;53.516;49.456;2022-11-20T13:44:50;2.23;79.59
67555;HTU21D;54385;53.516;49.456;2022-11-20T13:47:25;2.27;79.11
67555;HTU21D;54385;53.516;49.456;2022-11-20T13:49:53;2.23;78.30
67555;HTU21D;54385;53.516;49.456;2022-11-20T14:01:21;2.40;78.24
67555;HTU21D;54385;53.516;49.456;2022-11-20T14:03:49;2.27;78.55
67555;HTU21D;54385;53.516;49.456;2022-11-20T14:06:27;2.16;79.82
67555;HTU21D;54385;53.516;49.456;2022-11-20T14:08:55;2.22;79.98
67555;HTU21D;54385;53.516;49.456;2022-11-20T14:11:25;2.29;79.95
67555;HTU21D;54385;53.516;49.456;2022-11-20T14:16:23;2.20;79.56
67555;HTU21D;54385;53.516;49.456;2022-11-20T14:18:50;2.20;79.14
67555;HTU21D;54385;53.516;49.456;2022-11-20T14:21:28;2.11;78.75
67555;HTU21D;54385;53.516;49.456;2022-11-20T14:24:05;2.06;79.85
67555;HTU21D;54385;53.516;49.456;2022-11-20T14:26:32;2.05;80.15
67555;HTU21D;54385;53.516;49.456;2022-11-20T14:29:00;2.07;79.70
67555;HTU21D;54385;53.516;49.456;2022-11-20T14:31:27;2.00;80.03
67555;HTU21D;54385;53.516;49.456;2022-11-20T14:33:55;2.02;80.42
67555;HTU21D;54385;53.516;49.456;2022-11-20T14:36:23;2.09;79.67
67555;HTU21D;54385;53.516;49.456;2022-11-20T14:38:51;2.01;80.03
67555;HTU21D;54385;53.516;49.456;2022-11-20T14:41:23;2.03;80.39
67555;HTU21D;54385;53.516;49.456;2022-11-20T14:43:59;2.10;80.58
67555;HTU21D;54385;53.516;49.456;2022-11-20T14:46:27;2.06;80.26
67555;HTU21D;54385;53.516;49.456;2022-11-20T14:48:59;2.03;80.19
67555;HTU21D;54385;53.516;49.456;2022-11-20T14:51:38;2.00;79.98
67555;HTU21D;54385;53.516;49.456;2022-11-20T14:54:19;2.01;80.54
67555;HTU21D;54385;53.516;49.456;2022-11-20T14:57:01;1.95;80.09
67555;HTU21D;54385;53.516;49.456;2022-11-20T14:59:33;1.91;80.27
67555;HTU21D;54385;53.516;49.456;2022-11-20T15:04:29;1.97;81.08
67555;HTU21D;54385;53.516;49.456;2022-11-20T15:06:59;2.03;80.80
67555;HTU21D;54385;53.516;49.456;2022-11-20T15:09:26;2.01;80.95
67555;HTU21D;54385;53.516;49.456;2022-11-20T15:11:55;2.02;80.95
67555;HTU21D;54385;53.516;49.456;2022-11-20T15:14:25;2.09;80.91
67555;HTU21D;54385;53.516;49.456;2022-11-20T15:16:52;2.15;80.87
67555;HTU21D;54385;53.516;49.456;2022-11-20T15:19:24;2.09;80.69
67555;HTU21D;54385;53.516;49.456;2022-11-20T15:21:52;2.05;81.12
67555;HTU21D;54385;53.516;49.456;2022-11-20T15:24:18;2.07;80.90
67555;HTU21D;54385;53.516;49.456;2022-11-20T15:26:45;2.10;80.99
67555;HTU21D;54385;53.516;49.456;2022-11-20T15:29:14;2.09;80.50
67555;HTU21D;54385;53.516;49.456;2022-11-20T15:31:44;2.11;80.77
67555;HTU21D;54385;53.516;49.456;2022-11-20T15:34:12;2.13;81.06
67555;HTU21D;54385;53.516;49.456;2022-11-20T15:36:40;2.19;81.17
67555;HTU21D;54385;53.516;49.456;2022-11-20T15:39:07;2.21;80.36
67555;HTU21D;54385;53.516;49.456;2022-11-20T15:41:37;2.26;80.50
67555;HTU21D;54385;53.516;49.456;2022-11-20T15:44:04;2.21;80.69
67555;HTU21D;54385;53.516;49.456;2022-11-20T15:46:32;2.21;81.10
67555;HTU21D;54385;53.516;49.456;2022-11-20T15:49:03;2.15;80.68
67555;HTU21D;54385;53.516;49.456;2022-11-20T15:51:37;2.17;81.04
67555;HTU21D;54385;53.516;49.456;2022-11-20T15:54:20;2.21;81.17
67555;HTU21D;54385;53.516;49.456;2022-11-20T15:56:48;2.20;81.31
67555;HTU21D;54385;53.516;49.456;2022-11-20T15:59:14;2.17;81.17
67555;HTU21D;54385;53.516;49.456;2022-11-20T16:01:42;2.14;81.21
67555;HTU21D;54385;53.516;49.456;2022-11-20T16:04:13;2.19;80.81
67555;HTU21D;54385;53.516;49.456;2022-11-20T16:06:43;2.25;80.89
67555;HTU21D;54385;53.516;49.456;2022-11-20T16:09:10;2.21;80.61
67555;HTU21D;54385;53.516;49.456;2022-11-20T16:11:36;2.22;80.94
67555;HTU21D;54385;53.516;49.456;2022-11-20T16:14:04;2.17;80.39
67555;HTU21D;54385;53.516;49.456;2022-11-20T16:16:49;2.08;81.58
67555;HTU21D;54385;53.516;49.456;2022-11-20T16:19:15;2.16;81.39
67555;HTU21D;54385;53.516;49.456;2022-11-20T16:21:43;2.10;81.01
67555;HTU21D;54385;53.516;49.456;2022-11-20T16:24:10;2.10;81.64
67555;HTU21D;54385;53.516;49.456;2022-11-20T16:26:39;2.17;81.52
67555;HTU21D;54385;53.516;49.456;2022-11-20T16:29:06;2.25;81.05
67555;HTU21D;54385;53.516;49.456;2022-11-20T16:31:33;2.27;81.09
67555;HTU21D;54385;53.516;49.456;2022-11-20T16:34:03;2.29;80.98
67555;HTU21D;54385;53.516;49.456;2022-11-20T16:36:30;2.22;81.28
67555;HTU21D;54385;53.516;49.456;2022-11-20T16:38:58;2.21;81.51
67555;HTU21D;54385;53.516;49.456;2022-11-20T16:41:27;2.20;81.43
67555;HTU21D;54385;53.516;49.456;2022-11-20T16:43:57;2.22;80.93
67555;HTU21D;54385;53.516;49.456;2022-11-20T16:46:26;2.27;80.30
67555;HTU21D;54385;53.516;49.456;2022-11-20T16:48:54;2.26;80.59
67555;HTU21D;54385;53.516;49.456;2022-11-20T16:51:21;2.22;80.78
67555;HTU21D;54385;53.516;49.456;2022-11-20T16:53:49;2.25;80.82
67555;HTU21D;54385;53.516;49.456;2022-11-20T16:56:19;2.26;80.85
67555;HTU21D;54385;53.516;49.456;2022-11-20T16:58:47;2.29;80.30
67555;HTU21D;54385;53.516;49.456;2022-11-20T17:01:17;2.12;80.56
67555;HTU21D;54385;53.516;49.456;2022-11-20T17:03:53;2.11;81.10
67555;HTU21D;54385;53.516;49.456;2022-11-20T17:06:21;2.15;80.84
67555;HTU21D;54385;53.516;49.456;2022-11-20T17:08:48;2.11;80.62
67555;HTU21D;54385;53.516;49.456;2022-11-20T17:11:17;2.08;80.94
67555;HTU21D;54385;53.516;49.456;2022-11-20T17:13:45;2.05;80.97